Ciudad del Carmen International Airport
MMCE : now visible

Airfield :











YOU CAN JOIN US ON...

 
LOGIN :

Register | Disclaimer

   EN    FR    IT 

 









Legend :    VFR   Marginal VFR   IFR   Intensive IFR   Very Intensive IFR
Visi :
Ceiling :
>= 8 km
>= 3000ft
5 to 8 km
1000 to 3000 ft
1500m to 5 km
500 to 1000 ft
800 to 1500m
200 to 500 ft
< 800m
< 200 ft
Symbols :   Thunderstorms  Fog  Heavy snow  Heavy precipitations  Wind > 20 kt






- Airport Elevation : 10 ft
- IATA code : CME


MMCE - Ciudad del Carmen International

CURRENT METAR :
  • 151445Z 00000KT 7SM FEW080 30/24 A3004 RMK SLP169 52013 952 8/080 CI

EXPIRED METARs :
  • 151341Z 00000KT 7SM SCT080 28/24 A3002 RMK 8/030
  • 151241Z 15005KT 7SM BKN300 27/25 A3000 RMK 8/008
  • 151206Z RTD 00000KT 7SM SCT015 BKN300 26/26 A3000 RMK SLP156 5//// 963 8/708 RTS

TAF AMD TAF MMCE
Valid from the 15 at 14:00 until the 16 at 06:00 UTC


151346Z 1514/1606 15005KT P6SM SCT030
FM151800 18010KT P6SM SCT030
FM160200 00000KT P6SM SCT020CB
MMFR FIR / North America



MET'MAP, your aeronautical weather chart ! - Copyright ORBIFLY December 2007 - Disclaimer

ORBIFLY MET'MAP TEAM :

Programming & Development : Alexandra Zaïnal
Original concept : Baudouin d'Aumeries
Technical & hardware support : Manuel Goepfert
Assistance : Marc-Olivier Méhu




SOURCES & CREDITS :

   NOAA       Earth
Advisory